Duty — WDD5291 — position and weather

sailwx.info

Track history (hours):
 
Tides and Currents Weather Stations Pressure Air Temp Water Temp Dewpoint Dewpoint Depression Visibility Wind Speed Wind Dir Waves Ship Positions

Duty

Owner: Express Marine Inc., Camden, NJ. More information available from US FCC via Universal Licensing System and Coast Guard Vessel Documentation Center.

Last reported at 2018-Jun-11 08:16 UTC. Time now 2018-Jun-23 11:55 UTC.
Position N 27°02' W 080°02'.
Warning: this ship's position is 12 days out of date.

Length 33 m; draft 5 m.

Type: Tug. MMSI: 367082000.

Date/timePositionNaut miles runAvg speedWind from/ knotsBaromVisibWave heightAir tempDewpointWater temp
2018-Jun-11 08:16N 27°02' W 080°02'3 9.7
2018-Jun-11 08:01N 26°60' W 080°02'5 9.8
2018-Jun-11 07:30N 26°55' W 080°01'510.1
2018-Jun-11 06:59N 26°49' W 080°01'2510.2
2018-Jun-11 04:32N 26°24' W 080°03'1 9.2
2018-Jun-11 04:26N 26°24' W 080°03'4 9.4
2018-Jun-11 03:59N 26°19' W 080°04'4 9.4
2018-Jun-11 03:30N 26°15' W 080°04'5 9.2
2018-Jun-11 03:00N 26°10' W 080°05'4 9.0
2018-Jun-11 02:31N 26°06' W 080°05'3 5.0
2018-Jun-11 02:00N 26°05' W 080°07'0 0.1
2018-Jun-11 01:21N 26°05' W 080°07'0 0.0
2018-Jun-11 00:51N 26°05' W 080°07'0 0.0
2018-Jun-11 00:24N 26°05' W 080°07'0 0.0
2018-Jun-10 23:54N 26°05' W 080°07'0 0.0
2018-Jun-10 23:21N 26°05' W 080°07'0 0.0
2018-Jun-10 22:54N 26°05' W 080°07'0 0.0
2018-Jun-10 22:24N 26°05' W 080°07'0 0.0
2018-Jun-10 21:54N 26°05' W 080°07'0 0.0
2018-Jun-10 21:27N 26°05' W 080°07'0 0.0
2018-Jun-10 20:57N 26°05' W 080°07'0 0.0
2018-Jun-10 20:27N 26°05' W 080°07'0 0.0
2018-Jun-10 19:57N 26°05' W 080°07'0 0.0
2018-Jun-10 19:27N 26°05' W 080°07'0 0.0
2018-Jun-10 18:57N 26°05' W 080°07'0 0.0
2018-Jun-10 18:30N 26°05' W 080°07'0 0.0
2018-Jun-10 18:00N 26°05' W 080°07'0 0.0
2018-Jun-10 17:27N 26°05' W 080°07'0 0.0
2018-Jun-10 17:00N 26°05' W 080°07'0 0.0
2018-Jun-10 16:30N 26°05' W 080°07'0 0.0
2018-Jun-10 16:00N 26°05' W 080°07'0 0.0
2018-Jun-10 15:30N 26°05' W 080°07'0 0.0
2018-Jun-10 15:00N 26°05' W 080°07'0 0.0
2018-Jun-10 14:30N 26°05' W 080°07'0 0.0
2018-Jun-10 12:36N 26°05' W 080°07'0 0.0
2018-Jun-10 12:18N 26°05' W 080°07'0 0.0
2018-Jun-10 12:00N 26°05' W 080°07'0 0.0
2018-Jun-10 11:21N 26°05' W 080°07'0 0.0
2018-Jun-10 10:51N 26°05' W 080°07'0 0.0
2018-Jun-10 10:09N 26°05' W 080°07'0 0.0
2018-Jun-10 09:54N 26°05' W 080°07'0 0.0
2018-Jun-10 09:24N 26°05' W 080°07'0 0.0
2018-Jun-10 08:48N 26°05' W 080°07'0 0.0
2018-Jun-10 07:54N 26°05' W 080°07'0 0.0
2018-Jun-10 07:21N 26°05' W 080°07'0 0.0
2018-Jun-10 07:00N 26°05' W 080°07'1 2.2
2018-Jun-10 06:30N 26°06' W 080°06'3 5.6
2018-Jun-10 06:00N 26°08' W 080°04'3 6.2
2018-Jun-10 05:30N 26°11' W 080°04'3 6.0
2018-Jun-10 05:00N 26°14' W 080°03'3 5.9
2018-Jun-10 04:30N 26°17' W 080°03'3 5.6
2018-Jun-10 04:00N 26°19' W 080°03'3 6.1
2018-Jun-10 03:30N 26°23' W 080°03'4 7.3
2018-Jun-10 03:00N 26°26' W 080°03'26 6.6
2018-Jun-09 23:01N 26°52' W 080°01'0 8.6
2018-Jun-09 23:00N 26°52' W 080°01'4 8.4
2018-Jun-09 22:30N 26°57' W 080°02'4 8.4
2018-Jun-09 22:00N 27°01' W 080°02'  
Track history (hours):
 
Tides and Currents Weather Stations Pressure Air Temp Water Temp Dewpoint Dewpoint Depression Visibility Wind Speed Wind Dir Waves Ship Positions

Duty

Owner: Express Marine Inc., Camden, NJ. More information available from US FCC via Universal Licensing System and Coast Guard Vessel Documentation Center.

Last reported at 2018-Jun-11 08:16 UTC. Time now 2018-Jun-23 11:55 UTC.
Position N 27°02' W 080°02'.
Warning: this ship's position is 12 days out of date.

Length 33 m; draft 5 m.

Type: Tug. MMSI: 367082000.

Date/timePositionNaut miles runAvg speedWind from/ knotsBaromVisibWave heightAir tempDewpointWater temp
2018-Jun-11 08:16N 27°02' W 080°02'3 9.7
2018-Jun-11 08:01N 26°60' W 080°02'5 9.8
2018-Jun-11 07:30N 26°55' W 080°01'510.1
2018-Jun-11 06:59N 26°49' W 080°01'2510.2
2018-Jun-11 04:32N 26°24' W 080°03'1 9.2
2018-Jun-11 04:26N 26°24' W 080°03'4 9.4
2018-Jun-11 03:59N 26°19' W 080°04'4 9.4
2018-Jun-11 03:30N 26°15' W 080°04'5 9.2
2018-Jun-11 03:00N 26°10' W 080°05'4 9.0
2018-Jun-11 02:31N 26°06' W 080°05'3 5.0
2018-Jun-11 02:00N 26°05' W 080°07'0 0.1
2018-Jun-11 01:21N 26°05' W 080°07'0 0.0
2018-Jun-11 00:51N 26°05' W 080°07'0 0.0
2018-Jun-11 00:24N 26°05' W 080°07'0 0.0
2018-Jun-10 23:54N 26°05' W 080°07'0 0.0
2018-Jun-10 23:21N 26°05' W 080°07'0 0.0
2018-Jun-10 22:54N 26°05' W 080°07'0 0.0
2018-Jun-10 22:24N 26°05' W 080°07'0 0.0
2018-Jun-10 21:54N 26°05' W 080°07'0 0.0
2018-Jun-10 21:27N 26°05' W 080°07'0 0.0
2018-Jun-10 20:57N 26°05' W 080°07'0 0.0
2018-Jun-10 20:27N 26°05' W 080°07'0 0.0
2018-Jun-10 19:57N 26°05' W 080°07'0 0.0
2018-Jun-10 19:27N 26°05' W 080°07'0 0.0
2018-Jun-10 18:57N 26°05' W 080°07'0 0.0
2018-Jun-10 18:30N 26°05' W 080°07'0 0.0
2018-Jun-10 18:00N 26°05' W 080°07'0 0.0
2018-Jun-10 17:27N 26°05' W 080°07'0 0.0
2018-Jun-10 17:00N 26°05' W 080°07'0 0.0
2018-Jun-10 16:30N 26°05' W 080°07'0 0.0
2018-Jun-10 16:00N 26°05' W 080°07'0 0.0
2018-Jun-10 15:30N 26°05' W 080°07'0 0.0
2018-Jun-10 15:00N 26°05' W 080°07'0 0.0
2018-Jun-10 14:30N 26°05' W 080°07'0 0.0
2018-Jun-10 12:36N 26°05' W 080°07'0 0.0
2018-Jun-10 12:18N 26°05' W 080°07'0 0.0
2018-Jun-10 12:00N 26°05' W 080°07'0 0.0
2018-Jun-10 11:21N 26°05' W 080°07'0 0.0
2018-Jun-10 10:51N 26°05' W 080°07'0 0.0
2018-Jun-10 10:09N 26°05' W 080°07'0 0.0
2018-Jun-10 09:54N 26°05' W 080°07'0 0.0
2018-Jun-10 09:24N 26°05' W 080°07'0 0.0
2018-Jun-10 08:48N 26°05' W 080°07'0 0.0
2018-Jun-10 07:54N 26°05' W 080°07'0 0.0
2018-Jun-10 07:21N 26°05' W 080°07'0 0.0
2018-Jun-10 07:00N 26°05' W 080°07'1 2.2
2018-Jun-10 06:30N 26°06' W 080°06'3 5.6
2018-Jun-10 06:00N 26°08' W 080°04'3 6.2
2018-Jun-10 05:30N 26°11' W 080°04'3 6.0
2018-Jun-10 05:00N 26°14' W 080°03'3 5.9
2018-Jun-10 04:30N 26°17' W 080°03'3 5.6
2018-Jun-10 04:00N 26°19' W 080°03'3 6.1
2018-Jun-10 03:30N 26°23' W 080°03'4 7.3
2018-Jun-10 03:00N 26°26' W 080°03'26 6.6
2018-Jun-09 23:01N 26°52' W 080°01'0 8.6
2018-Jun-09 23:00N 26°52' W 080°01'4 8.4
2018-Jun-09 22:30N 26°57' W 080°02'4 8.4
2018-Jun-09 22:00N 27°01' W 080°02'  

Dump ship's entire track history